sensor_id;sensor_type;location;lat;lon;timestamp;P1;durP1;ratioP1;P2;durP2;ratioP2
39846;SDS011;25517;52.422;10.782;2023-02-04T00:02:20;4.25;;;1.85;;
39846;SDS011;25517;52.422;10.782;2023-02-04T00:04:45;6.55;;;1.83;;
39846;SDS011;25517;52.422;10.782;2023-02-04T00:07:11;7.20;;;1.80;;
39846;SDS011;25517;52.422;10.782;2023-02-04T00:09:36;5.88;;;2.00;;
39846;SDS011;25517;52.422;10.782;2023-02-04T00:12:02;3.55;;;1.85;;
39846;SDS011;25517;52.422;10.782;2023-02-04T00:14:27;7.38;;;1.80;;
39846;SDS011;25517;52.422;10.782;2023-02-04T00:16:53;2.90;;;1.90;;
39846;SDS011;25517;52.422;10.782;2023-02-04T00:19:18;4.50;;;1.83;;
39846;SDS011;25517;52.422;10.782;2023-02-04T00:21:44;3.50;;;1.40;;
39846;SDS011;25517;52.422;10.782;2023-02-04T00:24:09;3.60;;;1.40;;
39846;SDS011;25517;52.422;10.782;2023-02-04T00:26:35;4.78;;;2.40;;
39846;SDS011;25517;52.422;10.782;2023-02-04T00:29:01;7.20;;;1.55;;
39846;SDS011;25517;52.422;10.782;2023-02-04T00:31:26;2.88;;;1.52;;
39846;SDS011;25517;52.422;10.782;2023-02-04T00:33:52;2.72;;;1.73;;
39846;SDS011;25517;52.422;10.782;2023-02-04T00:36:17;2.67;;;1.60;;
39846;SDS011;25517;52.422;10.782;2023-02-04T00:38:43;3.97;;;1.55;;
39846;SDS011;25517;52.422;10.782;2023-02-04T00:41:08;3.95;;;2.13;;
39846;SDS011;25517;52.422;10.782;2023-02-04T00:43:34;4.53;;;2.08;;
39846;SDS011;25517;52.422;10.782;2023-02-04T00:45:59;4.40;;;2.15;;
39846;SDS011;25517;52.422;10.782;2023-02-04T00:48:25;5.35;;;2.10;;
39846;SDS011;25517;52.422;10.782;2023-02-04T00:50:50;3.83;;;2.00;;
39846;SDS011;25517;52.422;10.782;2023-02-04T00:53:17;6.25;;;2.35;;
39846;SDS011;25517;52.422;10.782;2023-02-04T00:55:43;3.95;;;2.00;;
39846;SDS011;25517;52.422;10.782;2023-02-04T00:58:09;5.30;;;1.80;;
39846;SDS011;25517;52.422;10.782;2023-02-04T01:00:34;5.88;;;1.83;;
39846;SDS011;25517;52.422;10.782;2023-02-04T01:03:00;3.15;;;1.63;;
39846;SDS011;25517;52.422;10.782;2023-02-04T01:05:25;4.75;;;1.63;;
39846;SDS011;25517;52.422;10.782;2023-02-04T01:07:51;4.18;;;1.83;;
39846;SDS011;25517;52.422;10.782;2023-02-04T01:10:16;4.13;;;1.80;;
39846;SDS011;25517;52.422;10.782;2023-02-04T01:12:42;5.88;;;2.40;;
39846;SDS011;25517;52.422;10.782;2023-02-04T01:15:08;5.47;;;2.55;;
39846;SDS011;25517;52.422;10.782;2023-02-04T01:17:34;3.88;;;2.08;;
39846;SDS011;25517;52.422;10.782;2023-02-04T01:19:59;2.00;;;1.67;;
39846;SDS011;25517;52.422;10.782;2023-02-04T01:22:25;10.10;;;2.30;;
39846;SDS011;25517;52.422;10.782;2023-02-04T01:24:51;4.35;;;1.83;;
39846;SDS011;25517;52.422;10.782;2023-02-04T01:27:16;3.20;;;1.85;;
39846;SDS011;25517;52.422;10.782;2023-02-04T01:29:42;4.90;;;1.67;;
39846;SDS011;25517;52.422;10.782;2023-02-04T01:32:07;4.90;;;1.77;;
39846;SDS011;25517;52.422;10.782;2023-02-04T01:34:33;2.65;;;1.50;;
39846;SDS011;25517;52.422;10.782;2023-02-04T01:36:58;5.00;;;1.50;;
39846;SDS011;25517;52.422;10.782;2023-02-04T01:39:24;3.38;;;1.50;;
39846;SDS011;25517;52.422;10.782;2023-02-04T01:41:49;5.57;;;2.20;;
39846;SDS011;25517;52.422;10.782;2023-02-04T01:44:15;2.40;;;1.92;;
39846;SDS011;25517;52.422;10.782;2023-02-04T01:46:41;3.05;;;1.88;;
39846;SDS011;25517;52.422;10.782;2023-02-04T01:49:06;2.50;;;1.52;;
39846;SDS011;25517;52.422;10.782;2023-02-04T01:51:33;3.50;;;2.00;;
39846;SDS011;25517;52.422;10.782;2023-02-04T01:54:01;4.07;;;2.10;;
39846;SDS011;25517;52.422;10.782;2023-02-04T01:56:27;5.93;;;2.17;;
39846;SDS011;25517;52.422;10.782;2023-02-04T01:58:54;2.85;;;2.10;;
39846;SDS011;25517;52.422;10.782;2023-02-04T02:01:35;5.28;;;1.88;;
39846;SDS011;25517;52.422;10.782;2023-02-04T02:04:12;8.50;;;2.38;;
39846;SDS011;25517;52.422;10.782;2023-02-04T02:06:42;3.90;;;2.00;;
39846;SDS011;25517;52.422;10.782;2023-02-04T02:09:14;3.45;;;2.10;;
39846;SDS011;25517;52.422;10.782;2023-02-04T02:11:40;3.85;;;2.00;;
39846;SDS011;25517;52.422;10.782;2023-02-04T02:14:05;6.40;;;2.33;;
39846;SDS011;25517;52.422;10.782;2023-02-04T02:16:31;7.20;;;2.38;;
39846;SDS011;25517;52.422;10.782;2023-02-04T02:18:57;5.65;;;2.55;;
39846;SDS011;25517;52.422;10.782;2023-02-04T02:21:28;5.47;;;1.98;;
39846;SDS011;25517;52.422;10.782;2023-02-04T02:24:16;4.38;;;2.20;;
39846;SDS011;25517;52.422;10.782;2023-02-04T02:26:49;2.28;;;1.98;;
39846;SDS011;25517;52.422;10.782;2023-02-04T02:29:16;2.97;;;2.47;;
39846;SDS011;25517;52.422;10.782;2023-02-04T02:31:41;5.50;;;2.22;;
39846;SDS011;25517;52.422;10.782;2023-02-04T02:34:07;4.75;;;2.63;;
39846;SDS011;25517;52.422;10.782;2023-02-04T02:36:32;4.00;;;2.22;;
39846;SDS011;25517;52.422;10.782;2023-02-04T02:38:58;4.82;;;2.40;;
39846;SDS011;25517;52.422;10.782;2023-02-04T02:41:24;6.38;;;2.38;;
39846;SDS011;25517;52.422;10.782;2023-02-04T02:43:49;4.60;;;2.35;;
39846;SDS011;25517;52.422;10.782;2023-02-04T02:46:15;5.93;;;2.10;;
39846;SDS011;25517;52.422;10.782;2023-02-04T02:48:40;4.47;;;2.15;;
39846;SDS011;25517;52.422;10.782;2023-02-04T02:51:06;2.88;;;2.10;;
39846;SDS011;25517;52.422;10.782;2023-02-04T02:53:31;4.80;;;2.08;;
39846;SDS011;25517;52.422;10.782;2023-02-04T02:55:57;5.13;;;2.20;;
39846;SDS011;25517;52.422;10.782;2023-02-04T02:58:32;6.13;;;2.45;;
39846;SDS011;25517;52.422;10.782;2023-02-04T03:01:00;5.35;;;2.17;;
39846;SDS011;25517;52.422;10.782;2023-02-04T03:03:38;5.93;;;2.65;;
39846;SDS011;25517;52.422;10.782;2023-02-04T03:06:20;2.38;;;2.05;;
39846;SDS011;25517;52.422;10.782;2023-02-04T03:08:49;3.03;;;2.00;;
39846;SDS011;25517;52.422;10.782;2023-02-04T03:11:19;2.85;;;2.13;;
39846;SDS011;25517;52.422;10.782;2023-02-04T03:13:44;2.47;;;1.80;;
39846;SDS011;25517;52.422;10.782;2023-02-04T03:16:10;6.53;;;2.40;;
39846;SDS011;25517;52.422;10.782;2023-02-04T03:18:39;4.18;;;2.30;;
39846;SDS011;25517;52.422;10.782;2023-02-04T03:21:05;4.35;;;2.40;;
39846;SDS011;25517;52.422;10.782;2023-02-04T03:23:31;4.97;;;2.13;;
39846;SDS011;25517;52.422;10.782;2023-02-04T03:25:59;2.90;;;2.28;;
39846;SDS011;25517;52.422;10.782;2023-02-04T03:28:25;4.95;;;3.05;;
39846;SDS011;25517;52.422;10.782;2023-02-04T03:30:50;4.15;;;2.38;;
39846;SDS011;25517;52.422;10.782;2023-02-04T03:33:20;4.22;;;2.58;;
39846;SDS011;25517;52.422;10.782;2023-02-04T03:35:50;2.97;;;2.58;;
39846;SDS011;25517;52.422;10.782;2023-02-04T03:38:16;6.60;;;2.35;;
39846;SDS011;25517;52.422;10.782;2023-02-04T03:40:42;5.72;;;2.17;;
39846;SDS011;25517;52.422;10.782;2023-02-04T03:43:08;6.40;;;2.67;;
39846;SDS011;25517;52.422;10.782;2023-02-04T03:45:34;3.67;;;1.98;;
39846;SDS011;25517;52.422;10.782;2023-02-04T03:48:00;4.40;;;2.35;;
39846;SDS011;25517;52.422;10.782;2023-02-04T03:50:25;5.82;;;2.83;;
39846;SDS011;25517;52.422;10.782;2023-02-04T03:52:51;4.07;;;2.38;;
39846;SDS011;25517;52.422;10.782;2023-02-04T03:55:17;3.72;;;2.22;;
39846;SDS011;25517;52.422;10.782;2023-02-04T03:57:43;4.68;;;2.42;;
39846;SDS011;25517;52.422;10.782;2023-02-04T04:00:09;4.38;;;2.28;;
39846;SDS011;25517;52.422;10.782;2023-02-04T04:02:35;7.30;;;3.03;;
39846;SDS011;25517;52.422;10.782;2023-02-04T04:05:01;3.47;;;2.45;;
39846;SDS011;25517;52.422;10.782;2023-02-04T04:07:27;5.97;;;2.50;;
39846;SDS011;25517;52.422;10.782;2023-02-04T04:09:52;4.45;;;2.50;;
39846;SDS011;25517;52.422;10.782;2023-02-04T04:12:18;4.13;;;2.45;;
39846;SDS011;25517;52.422;10.782;2023-02-04T04:14:43;4.40;;;2.55;;
39846;SDS011;25517;52.422;10.782;2023-02-04T04:17:09;4.97;;;2.67;;
39846;SDS011;25517;52.422;10.782;2023-02-04T04:19:34;2.97;;;2.38;;
39846;SDS011;25517;52.422;10.782;2023-02-04T04:22:00;4.97;;;2.53;;
39846;SDS011;25517;52.422;10.782;2023-02-04T04:24:25;8.85;;;2.90;;
39846;SDS011;25517;52.422;10.782;2023-02-04T04:26:51;3.80;;;2.63;;
39846;SDS011;25517;52.422;10.782;2023-02-04T04:29:16;5.03;;;2.53;;
39846;SDS011;25517;52.422;10.782;2023-02-04T04:31:42;3.55;;;2.40;;
39846;SDS011;25517;52.422;10.782;2023-02-04T04:34:08;5.97;;;2.70;;
39846;SDS011;25517;52.422;10.782;2023-02-04T04:36:34;6.75;;;2.65;;
39846;SDS011;25517;52.422;10.782;2023-02-04T04:39:00;4.78;;;2.47;;
39846;SDS011;25517;52.422;10.782;2023-02-04T04:41:25;6.78;;;2.30;;
39846;SDS011;25517;52.422;10.782;2023-02-04T04:43:51;4.60;;;2.85;;
39846;SDS011;25517;52.422;10.782;2023-02-04T04:46:16;5.20;;;2.80;;
39846;SDS011;25517;52.422;10.782;2023-02-04T04:48:42;3.28;;;2.47;;
39846;SDS011;25517;52.422;10.782;2023-02-04T04:51:07;5.45;;;3.33;;
39846;SDS011;25517;52.422;10.782;2023-02-04T04:53:33;4.47;;;2.72;;
39846;SDS011;25517;52.422;10.782;2023-02-04T04:55:58;4.13;;;2.67;;
39846;SDS011;25517;52.422;10.782;2023-02-04T04:58:24;6.38;;;2.58;;
39846;SDS011;25517;52.422;10.782;2023-02-04T05:00:49;7.55;;;3.00;;
39846;SDS011;25517;52.422;10.782;2023-02-04T05:03:15;7.18;;;3.10;;
39846;SDS011;25517;52.422;10.782;2023-02-04T05:05:40;6.63;;;2.53;;
39846;SDS011;25517;52.422;10.782;2023-02-04T05:08:06;3.38;;;2.50;;
39846;SDS011;25517;52.422;10.782;2023-02-04T05:10:40;5.47;;;3.13;;
39846;SDS011;25517;52.422;10.782;2023-02-04T05:13:06;3.92;;;2.88;;
39846;SDS011;25517;52.422;10.782;2023-02-04T05:15:32;3.80;;;2.50;;
39846;SDS011;25517;52.422;10.782;2023-02-04T05:17:58;4.90;;;3.22;;
39846;SDS011;25517;52.422;10.782;2023-02-04T05:20:24;6.20;;;2.90;;
39846;SDS011;25517;52.422;10.782;2023-02-04T05:22:49;6.07;;;3.00;;
39846;SDS011;25517;52.422;10.782;2023-02-04T05:25:15;8.57;;;2.85;;
39846;SDS011;25517;52.422;10.782;2023-02-04T05:27:41;4.13;;;2.38;;
39846;SDS011;25517;52.422;10.782;2023-02-04T05:30:11;6.35;;;3.05;;
39846;SDS011;25517;52.422;10.782;2023-02-04T05:32:38;4.35;;;2.90;;
39846;SDS011;25517;52.422;10.782;2023-02-04T05:35:04;6.03;;;3.20;;
39846;SDS011;25517;52.422;10.782;2023-02-04T05:37:30;8.13;;;3.67;;
39846;SDS011;25517;52.422;10.782;2023-02-04T05:39:55;4.25;;;2.95;;
39846;SDS011;25517;52.422;10.782;2023-02-04T05:42:21;3.00;;;2.55;;
39846;SDS011;25517;52.422;10.782;2023-02-04T05:44:46;5.38;;;2.63;;
39846;SDS011;25517;52.422;10.782;2023-02-04T05:47:12;4.65;;;2.30;;
39846;SDS011;25517;52.422;10.782;2023-02-04T05:49:37;4.45;;;2.63;;
39846;SDS011;25517;52.422;10.782;2023-02-04T05:52:03;4.90;;;2.83;;
39846;SDS011;25517;52.422;10.782;2023-02-04T05:54:29;4.93;;;2.85;;
39846;SDS011;25517;52.422;10.782;2023-02-04T05:56:54;7.65;;;2.90;;
39846;SDS011;25517;52.422;10.782;2023-02-04T05:59:20;9.20;;;2.75;;
39846;SDS011;25517;52.422;10.782;2023-02-04T06:01:45;4.80;;;3.33;;
39846;SDS011;25517;52.422;10.782;2023-02-04T06:04:11;4.03;;;2.60;;
39846;SDS011;25517;52.422;10.782;2023-02-04T06:06:36;4.30;;;2.78;;
39846;SDS011;25517;52.422;10.782;2023-02-04T06:09:02;8.80;;;3.15;;
39846;SDS011;25517;52.422;10.782;2023-02-04T06:11:28;4.57;;;2.92;;
39846;SDS011;25517;52.422;10.782;2023-02-04T06:13:53;3.40;;;2.80;;
39846;SDS011;25517;52.422;10.782;2023-02-04T06:16:19;7.82;;;3.28;;
39846;SDS011;25517;52.422;10.782;2023-02-04T06:18:44;4.28;;;2.95;;
39846;SDS011;25517;52.422;10.782;2023-02-04T06:21:10;4.25;;;2.80;;
39846;SDS011;25517;52.422;10.782;2023-02-04T06:23:35;4.30;;;2.72;;
39846;SDS011;25517;52.422;10.782;2023-02-04T06:26:01;6.97;;;3.33;;
39846;SDS011;25517;52.422;10.782;2023-02-04T06:28:27;5.65;;;3.08;;
39846;SDS011;25517;52.422;10.782;2023-02-04T06:30:52;6.68;;;3.65;;
39846;SDS011;25517;52.422;10.782;2023-02-04T06:33:18;4.18;;;3.15;;
39846;SDS011;25517;52.422;10.782;2023-02-04T06:35:45;6.50;;;3.65;;
39846;SDS011;25517;52.422;10.782;2023-02-04T06:38:10;4.93;;;3.00;;
39846;SDS011;25517;52.422;10.782;2023-02-04T06:40:36;5.18;;;3.22;;
39846;SDS011;25517;52.422;10.782;2023-02-04T06:43:02;5.50;;;3.15;;
39846;SDS011;25517;52.422;10.782;2023-02-04T06:45:28;6.90;;;3.55;;
39846;SDS011;25517;52.422;10.782;2023-02-04T06:47:53;4.18;;;3.20;;
39846;SDS011;25517;52.422;10.782;2023-02-04T06:50:19;4.18;;;3.15;;
39846;SDS011;25517;52.422;10.782;2023-02-04T06:52:44;5.47;;;3.55;;
39846;SDS011;25517;52.422;10.782;2023-02-04T06:55:11;5.18;;;3.00;;
39846;SDS011;25517;52.422;10.782;2023-02-04T06:57:37;6.38;;;3.67;;
39846;SDS011;25517;52.422;10.782;2023-02-04T07:00:03;4.07;;;3.20;;
39846;SDS011;25517;52.422;10.782;2023-02-04T07:02:29;5.47;;;3.67;;
39846;SDS011;25517;52.422;10.782;2023-02-04T07:04:54;4.88;;;3.30;;
39846;SDS011;25517;52.422;10.782;2023-02-04T07:07:20;8.02;;;3.55;;
39846;SDS011;25517;52.422;10.782;2023-02-04T07:09:45;5.13;;;3.35;;
39846;SDS011;25517;52.422;10.782;2023-02-04T07:12:11;6.57;;;3.60;;
39846;SDS011;25517;52.422;10.782;2023-02-04T07:14:36;7.45;;;3.65;;
39846;SDS011;25517;52.422;10.782;2023-02-04T07:17:02;5.35;;;3.50;;
39846;SDS011;25517;52.422;10.782;2023-02-04T07:19:28;6.50;;;3.83;;
39846;SDS011;25517;52.422;10.782;2023-02-04T07:21:53;5.38;;;3.15;;
39846;SDS011;25517;52.422;10.782;2023-02-04T07:24:20;6.03;;;4.07;;
39846;SDS011;25517;52.422;10.782;2023-02-04T07:26:47;6.35;;;4.32;;
39846;SDS011;25517;52.422;10.782;2023-02-04T07:29:12;6.15;;;4.07;;
39846;SDS011;25517;52.422;10.782;2023-02-04T07:31:38;6.57;;;3.90;;
39846;SDS011;25517;52.422;10.782;2023-02-04T07:34:03;8.32;;;3.65;;
39846;SDS011;25517;52.422;10.782;2023-02-04T07:36:29;7.15;;;3.95;;
39846;SDS011;25517;52.422;10.782;2023-02-04T07:38:54;10.40;;;3.83;;
39846;SDS011;25517;52.422;10.782;2023-02-04T07:41:20;5.72;;;3.80;;
39846;SDS011;25517;52.422;10.782;2023-02-04T07:43:45;5.97;;;3.95;;
39846;SDS011;25517;52.422;10.782;2023-02-04T07:46:11;7.32;;;3.50;;
39846;SDS011;25517;52.422;10.782;2023-02-04T07:48:37;6.72;;;3.83;;
39846;SDS011;25517;52.422;10.782;2023-02-04T07:51:03;6.60;;;3.75;;
39846;SDS011;25517;52.422;10.782;2023-02-04T07:53:29;5.20;;;3.70;;
39846;SDS011;25517;52.422;10.782;2023-02-04T07:55:54;6.45;;;4.15;;
39846;SDS011;25517;52.422;10.782;2023-02-04T07:58:20;5.03;;;3.88;;
39846;SDS011;25517;52.422;10.782;2023-02-04T08:00:46;9.10;;;4.78;;
39846;SDS011;25517;52.422;10.782;2023-02-04T08:03:12;6.22;;;4.43;;
39846;SDS011;25517;52.422;10.782;2023-02-04T08:05:37;7.10;;;4.10;;
39846;SDS011;25517;52.422;10.782;2023-02-04T08:08:03;6.78;;;4.20;;
39846;SDS011;25517;52.422;10.782;2023-02-04T08:10:28;6.47;;;3.72;;
39846;SDS011;25517;52.422;10.782;2023-02-04T08:12:54;7.13;;;3.75;;
39846;SDS011;25517;52.422;10.782;2023-02-04T08:15:19;8.80;;;3.28;;
39846;SDS011;25517;52.422;10.782;2023-02-04T08:17:45;8.93;;;3.75;;
39846;SDS011;25517;52.422;10.782;2023-02-04T08:20:10;5.93;;;3.05;;
39846;SDS011;25517;52.422;10.782;2023-02-04T08:22:36;3.50;;;2.72;;
39846;SDS011;25517;52.422;10.782;2023-02-04T08:25:02;6.28;;;4.53;;
39846;SDS011;25517;52.422;10.782;2023-02-04T08:27:29;7.65;;;3.40;;
39846;SDS011;25517;52.422;10.782;2023-02-04T08:29:55;5.35;;;3.38;;
39846;SDS011;25517;52.422;10.782;2023-02-04T08:32:20;5.65;;;3.50;;
39846;SDS011;25517;52.422;10.782;2023-02-04T08:34:46;5.55;;;3.22;;
39846;SDS011;25517;52.422;10.782;2023-02-04T08:37:12;7.28;;;3.72;;
39846;SDS011;25517;52.422;10.782;2023-02-04T08:39:38;6.00;;;3.20;;
39846;SDS011;25517;52.422;10.782;2023-02-04T08:42:08;5.63;;;3.53;;
39846;SDS011;25517;52.422;10.782;2023-02-04T08:44:33;7.10;;;3.70;;
39846;SDS011;25517;52.422;10.782;2023-02-04T08:46:59;4.72;;;2.67;;
39846;SDS011;25517;52.422;10.782;2023-02-04T08:49:25;5.40;;;3.08;;
39846;SDS011;25517;52.422;10.782;2023-02-04T08:51:50;5.60;;;3.17;;
39846;SDS011;25517;52.422;10.782;2023-02-04T08:54:16;5.53;;;3.20;;
39846;SDS011;25517;52.422;10.782;2023-02-04T08:56:41;7.00;;;3.33;;
39846;SDS011;25517;52.422;10.782;2023-02-04T08:59:07;6.35;;;3.47;;
39846;SDS011;25517;52.422;10.782;2023-02-04T09:01:32;6.07;;;3.30;;
39846;SDS011;25517;52.422;10.782;2023-02-04T09:03:58;8.38;;;3.70;;
39846;SDS011;25517;52.422;10.782;2023-02-04T09:06:23;9.77;;;3.85;;
39846;SDS011;25517;52.422;10.782;2023-02-04T09:08:49;7.03;;;3.80;;
39846;SDS011;25517;52.422;10.782;2023-02-04T09:11:14;5.20;;;3.53;;
39846;SDS011;25517;52.422;10.782;2023-02-04T09:13:40;6.32;;;3.30;;
39846;SDS011;25517;52.422;10.782;2023-02-04T09:16:05;7.30;;;3.25;;
39846;SDS011;25517;52.422;10.782;2023-02-04T09:18:31;5.97;;;4.00;;
39846;SDS011;25517;52.422;10.782;2023-02-04T09:20:57;5.50;;;3.15;;
39846;SDS011;25517;52.422;10.782;2023-02-04T09:23:23;7.10;;;3.50;;
39846;SDS011;25517;52.422;10.782;2023-02-04T09:25:49;3.65;;;2.42;;
39846;SDS011;25517;52.422;10.782;2023-02-04T09:28:15;4.03;;;2.75;;
39846;SDS011;25517;52.422;10.782;2023-02-04T09:30:41;5.32;;;3.03;;
39846;SDS011;25517;52.422;10.782;2023-02-04T09:33:08;9.23;;;2.88;;
39846;SDS011;25517;52.422;10.782;2023-02-04T09:35:35;8.50;;;2.60;;
39846;SDS011;25517;52.422;10.782;2023-02-04T09:38:01;3.83;;;2.00;;
39846;SDS011;25517;52.422;10.782;2023-02-04T09:40:28;3.83;;;1.73;;
39846;SDS011;25517;52.422;10.782;2023-02-04T09:42:58;5.78;;;1.98;;
39846;SDS011;25517;52.422;10.782;2023-02-04T09:45:26;6.05;;;2.80;;
39846;SDS011;25517;52.422;10.782;2023-02-04T09:47:53;7.65;;;2.50;;
39846;SDS011;25517;52.422;10.782;2023-02-04T09:50:23;9.25;;;2.78;;
39846;SDS011;25517;52.422;10.782;2023-02-04T09:52:50;3.58;;;2.13;;
39846;SDS011;25517;52.422;10.782;2023-02-04T09:55:19;2.47;;;1.58;;
39846;SDS011;25517;52.422;10.782;2023-02-04T09:57:46;5.80;;;1.45;;
39846;SDS011;25517;52.422;10.782;2023-02-04T10:00:19;6.60;;;1.90;;
39846;SDS011;25517;52.422;10.782;2023-02-04T10:02:47;3.50;;;1.92;;
39846;SDS011;25517;52.422;10.782;2023-02-04T10:05:17;3.40;;;1.70;;
39846;SDS011;25517;52.422;10.782;2023-02-04T10:07:53;4.07;;;1.80;;
39846;SDS011;25517;52.422;10.782;2023-02-04T10:10:19;2.42;;;1.83;;
39846;SDS011;25517;52.422;10.782;2023-02-04T10:12:49;2.78;;;1.30;;
39846;SDS011;25517;52.422;10.782;2023-02-04T10:15:17;3.08;;;1.30;;
39846;SDS011;25517;52.422;10.782;2023-02-04T10:17:44;3.58;;;1.38;;
39846;SDS011;25517;52.422;10.782;2023-02-04T10:20:15;3.28;;;1.38;;
39846;SDS011;25517;52.422;10.782;2023-02-04T10:22:43;3.08;;;1.25;;
39846;SDS011;25517;52.422;10.782;2023-02-04T10:25:16;2.13;;;1.08;;
39846;SDS011;25517;52.422;10.782;2023-02-04T10:27:51;1.73;;;0.90;;
39846;SDS011;25517;52.422;10.782;2023-02-04T10:30:20;1.70;;;1.00;;
39846;SDS011;25517;52.422;10.782;2023-02-04T10:32:51;2.33;;;0.80;;
39846;SDS011;25517;52.422;10.782;2023-02-04T10:35:19;2.47;;;1.00;;
39846;SDS011;25517;52.422;10.782;2023-02-04T10:37:45;3.00;;;1.20;;
39846;SDS011;25517;52.422;10.782;2023-02-04T10:40:30;1.83;;;0.70;;
39846;SDS011;25517;52.422;10.782;2023-02-04T10:42:57;2.00;;;0.75;;
39846;SDS011;25517;52.422;10.782;2023-02-04T10:45:24;2.25;;;0.90;;
39846;SDS011;25517;52.422;10.782;2023-02-04T10:47:52;1.35;;;0.98;;
39846;SDS011;25517;52.422;10.782;2023-02-04T10:50:20;3.30;;;1.00;;
39846;SDS011;25517;52.422;10.782;2023-02-04T10:52:50;3.35;;;1.27;;
39846;SDS011;25517;52.422;10.782;2023-02-04T10:55:20;2.47;;;1.07;;
39846;SDS011;25517;52.422;10.782;2023-02-04T10:57:48;3.00;;;1.17;;
39846;SDS011;25517;52.422;10.782;2023-02-04T11:00:17;1.13;;;0.85;;
39846;SDS011;25517;52.422;10.782;2023-02-04T11:05:22;4.40;;;0.80;;
39846;SDS011;25517;52.422;10.782;2023-02-04T11:07:52;1.42;;;1.13;;
39846;SDS011;25517;52.422;10.782;2023-02-04T11:10:22;2.25;;;1.23;;
39846;SDS011;25517;52.422;10.782;2023-02-04T11:18:12;3.22;;;1.10;;
39846;SDS011;25517;52.422;10.782;2023-02-04T11:20:44;2.42;;;0.93;;
39846;SDS011;25517;52.422;10.782;2023-02-04T11:25:46;2.67;;;0.90;;
39846;SDS011;25517;52.422;10.782;2023-02-04T11:28:23;1.75;;;0.90;;
39846;SDS011;25517;52.422;10.782;2023-02-04T11:31:02;3.95;;;1.23;;
39846;SDS011;25517;52.422;10.782;2023-02-04T11:33:38;1.52;;;0.90;;
39846;SDS011;25517;52.422;10.782;2023-02-04T11:36:06;3.88;;;1.20;;
39846;SDS011;25517;52.422;10.782;2023-02-04T11:38:35;2.08;;;0.90;;
39846;SDS011;25517;52.422;10.782;2023-02-04T11:41:00;2.90;;;1.50;;
39846;SDS011;25517;52.422;10.782;2023-02-04T11:43:27;3.20;;;1.20;;
39846;SDS011;25517;52.422;10.782;2023-02-04T11:46:00;1.70;;;1.00;;
39846;SDS011;25517;52.422;10.782;2023-02-04T11:48:28;2.28;;;1.00;;
39846;SDS011;25517;52.422;10.782;2023-02-04T11:50:59;1.45;;;0.82;;
39846;SDS011;25517;52.422;10.782;2023-02-04T11:53:30;1.95;;;1.10;;
39846;SDS011;25517;52.422;10.782;2023-02-04T11:55:57;2.33;;;1.20;;
39846;SDS011;25517;52.422;10.782;2023-02-04T11:58:22;2.78;;;1.10;;
39846;SDS011;25517;52.422;10.782;2023-02-04T12:00:50;5.22;;;1.63;;
39846;SDS011;25517;52.422;10.782;2023-02-04T12:03:22;3.80;;;1.40;;
39846;SDS011;25517;52.422;10.782;2023-02-04T12:05:51;1.48;;;1.05;;
39846;SDS011;25517;52.422;10.782;2023-02-04T12:11:29;1.77;;;0.90;;
39846;SDS011;25517;52.422;10.782;2023-02-04T12:13:51;1.40;;;0.85;;
39846;SDS011;25517;52.422;10.782;2023-02-04T12:16:18;1.45;;;0.90;;
39846;SDS011;25517;52.422;10.782;2023-02-04T12:18:44;4.30;;;1.15;;
39846;SDS011;25517;52.422;10.782;2023-02-04T12:21:09;2.20;;;1.20;;
39846;SDS011;25517;52.422;10.782;2023-02-04T12:23:35;1.42;;;1.02;;
39846;SDS011;25517;52.422;10.782;2023-02-04T12:26:00;1.42;;;0.90;;
39846;SDS011;25517;52.422;10.782;2023-02-04T12:28:26;2.22;;;1.05;;
39846;SDS011;25517;52.422;10.782;2023-02-04T12:30:53;1.20;;;0.85;;
39846;SDS011;25517;52.422;10.782;2023-02-04T12:33:19;2.63;;;1.08;;
39846;SDS011;25517;52.422;10.782;2023-02-04T12:35:46;3.38;;;1.40;;
39846;SDS011;25517;52.422;10.782;2023-02-04T12:38:12;2.10;;;0.95;;
39846;SDS011;25517;52.422;10.782;2023-02-04T12:40:37;2.15;;;1.67;;
39846;SDS011;25517;52.422;10.782;2023-02-04T12:43:03;1.77;;;1.25;;
39846;SDS011;25517;52.422;10.782;2023-02-04T12:45:29;2.10;;;1.15;;
39846;SDS011;25517;52.422;10.782;2023-02-04T12:47:55;1.42;;;1.08;;
39846;SDS011;25517;52.422;10.782;2023-02-04T12:50:20;1.73;;;0.93;;
39846;SDS011;25517;52.422;10.782;2023-02-04T12:52:52;1.60;;;0.73;;
39846;SDS011;25517;52.422;10.782;2023-02-04T12:55:18;2.72;;;1.80;;
39846;SDS011;25517;52.422;10.782;2023-02-04T12:57:44;3.25;;;1.52;;
39846;SDS011;25517;52.422;10.782;2023-02-04T13:00:11;3.50;;;1.17;;
39846;SDS011;25517;52.422;10.782;2023-02-04T13:02:37;2.40;;;1.05;;
39846;SDS011;25517;52.422;10.782;2023-02-04T13:05:03;2.50;;;1.20;;
39846;SDS011;25517;52.422;10.782;2023-02-04T13:07:29;2.95;;;1.10;;
39846;SDS011;25517;52.422;10.782;2023-02-04T13:09:54;1.77;;;0.90;;
39846;SDS011;25517;52.422;10.782;2023-02-04T13:12:21;3.63;;;1.13;;
39846;SDS011;25517;52.422;10.782;2023-02-04T13:14:46;2.40;;;1.08;;
39846;SDS011;25517;52.422;10.782;2023-02-04T13:17:12;1.65;;;0.93;;
39846;SDS011;25517;52.422;10.782;2023-02-04T13:19:37;2.05;;;1.25;;
39846;SDS011;25517;52.422;10.782;2023-02-04T13:22:03;1.38;;;0.90;;
39846;SDS011;25517;52.422;10.782;2023-02-04T13:24:29;2.03;;;0.80;;
39846;SDS011;25517;52.422;10.782;2023-02-04T13:26:54;2.17;;;0.90;;
39846;SDS011;25517;52.422;10.782;2023-02-04T13:29:20;1.75;;;0.90;;
39846;SDS011;25517;52.422;10.782;2023-02-04T13:31:46;2.97;;;0.85;;
39846;SDS011;25517;52.422;10.782;2023-02-04T13:34:12;1.38;;;0.82;;
39846;SDS011;25517;52.422;10.782;2023-02-04T13:36:37;3.35;;;0.98;;
39846;SDS011;25517;52.422;10.782;2023-02-04T13:39:03;4.13;;;1.77;;
39846;SDS011;25517;52.422;10.782;2023-02-04T13:41:29;4.15;;;1.25;;
39846;SDS011;25517;52.422;10.782;2023-02-04T13:43:55;3.40;;;1.20;;
39846;SDS011;25517;52.422;10.782;2023-02-04T13:46:21;4.50;;;1.10;;
39846;SDS011;25517;52.422;10.782;2023-02-04T13:48:47;3.30;;;1.15;;
39846;SDS011;25517;52.422;10.782;2023-02-04T13:51:14;5.32;;;1.60;;
39846;SDS011;25517;52.422;10.782;2023-02-04T13:53:39;3.03;;;0.90;;
39846;SDS011;25517;52.422;10.782;2023-02-04T13:56:05;2.25;;;0.85;;
39846;SDS011;25517;52.422;10.782;2023-02-04T13:58:30;1.95;;;0.90;;
39846;SDS011;25517;52.422;10.782;2023-02-04T14:00:56;1.77;;;0.90;;
39846;SDS011;25517;52.422;10.782;2023-02-04T14:03:25;1.80;;;0.73;;
39846;SDS011;25517;52.422;10.782;2023-02-04T14:05:52;2.93;;;1.40;;
39846;SDS011;25517;52.422;10.782;2023-02-04T14:08:18;3.78;;;0.90;;
39846;SDS011;25517;52.422;10.782;2023-02-04T14:10:44;3.08;;;1.20;;
39846;SDS011;25517;52.422;10.782;2023-02-04T14:13:10;0.82;;;0.63;;
39846;SDS011;25517;52.422;10.782;2023-02-04T14:15:36;1.98;;;0.80;;
39846;SDS011;25517;52.422;10.782;2023-02-04T14:18:02;1.05;;;0.95;;
39846;SDS011;25517;52.422;10.782;2023-02-04T14:20:28;1.92;;;0.93;;
39846;SDS011;25517;52.422;10.782;2023-02-04T14:22:54;2.22;;;1.10;;
39846;SDS011;25517;52.422;10.782;2023-02-04T14:25:20;2.78;;;1.20;;
39846;SDS011;25517;52.422;10.782;2023-02-04T14:27:45;3.83;;;1.13;;
39846;SDS011;25517;52.422;10.782;2023-02-04T14:30:15;3.00;;;0.93;;
39846;SDS011;25517;52.422;10.782;2023-02-04T14:32:45;2.30;;;0.75;;
39846;SDS011;25517;52.422;10.782;2023-02-04T14:35:11;2.45;;;0.73;;
39846;SDS011;25517;52.422;10.782;2023-02-04T14:37:36;4.60;;;1.20;;
39846;SDS011;25517;52.422;10.782;2023-02-04T14:40:02;3.00;;;1.30;;
39846;SDS011;25517;52.422;10.782;2023-02-04T14:42:28;2.15;;;1.25;;
39846;SDS011;25517;52.422;10.782;2023-02-04T14:44:54;2.35;;;1.08;;